sensor_id;sensor_type;location;lat;lon;timestamp;temperature;humidity
7708;DHT22;3896;48.758;8.888;2023-04-24T00:01:17;12.60;86.60
7708;DHT22;3896;48.758;8.888;2023-04-24T00:03:42;12.60;86.90
7708;DHT22;3896;48.758;8.888;2023-04-24T00:06:08;12.60;86.60
7708;DHT22;3896;48.758;8.888;2023-04-24T00:08:34;12.70;86.70
7708;DHT22;3896;48.758;8.888;2023-04-24T00:11:01;12.70;86.60
7708;DHT22;3896;48.758;8.888;2023-04-24T00:13:26;12.70;86.50
7708;DHT22;3896;48.758;8.888;2023-04-24T00:15:54;12.70;86.50
7708;DHT22;3896;48.758;8.888;2023-04-24T00:18:20;12.70;86.20
7708;DHT22;3896;48.758;8.888;2023-04-24T00:20:45;12.70;85.90
7708;DHT22;3896;48.758;8.888;2023-04-24T00:23:12;12.70;86.10
7708;DHT22;3896;48.758;8.888;2023-04-24T00:25:37;12.70;86.00
7708;DHT22;3896;48.758;8.888;2023-04-24T00:28:03;12.70;86.30
7708;DHT22;3896;48.758;8.888;2023-04-24T00:30:28;12.70;86.30
7708;DHT22;3896;48.758;8.888;2023-04-24T00:32:54;12.70;86.30
7708;DHT22;3896;48.758;8.888;2023-04-24T00:35:19;12.70;86.30
7708;DHT22;3896;48.758;8.888;2023-04-24T00:37:45;12.70;86.30
7708;DHT22;3896;48.758;8.888;2023-04-24T00:40:11;12.70;86.40
7708;DHT22;3896;48.758;8.888;2023-04-24T00:42:37;12.70;86.40
7708;DHT22;3896;48.758;8.888;2023-04-24T00:45:04;12.70;86.60
7708;DHT22;3896;48.758;8.888;2023-04-24T00:47:32;12.70;86.60
7708;DHT22;3896;48.758;8.888;2023-04-24T00:49:58;12.70;86.90
7708;DHT22;3896;48.758;8.888;2023-04-24T00:52:23;12.70;87.00
7708;DHT22;3896;48.758;8.888;2023-04-24T00:54:49;12.70;87.10
7708;DHT22;3896;48.758;8.888;2023-04-24T00:57:15;12.70;87.10
7708;DHT22;3896;48.758;8.888;2023-04-24T00:59:42;12.70;87.30
7708;DHT22;3896;48.758;8.888;2023-04-24T01:02:09;12.70;87.50
7708;DHT22;3896;48.758;8.888;2023-04-24T01:04:36;12.70;87.50
7708;DHT22;3896;48.758;8.888;2023-04-24T01:07:02;12.70;87.70
7708;DHT22;3896;48.758;8.888;2023-04-24T01:09:28;12.70;87.80
7708;DHT22;3896;48.758;8.888;2023-04-24T01:11:54;12.70;88.30
7708;DHT22;3896;48.758;8.888;2023-04-24T01:14:20;12.70;88.50
7708;DHT22;3896;48.758;8.888;2023-04-24T01:16:45;12.70;88.80
7708;DHT22;3896;48.758;8.888;2023-04-24T01:19:11;12.70;88.90
7708;DHT22;3896;48.758;8.888;2023-04-24T01:21:38;12.70;89.10
7708;DHT22;3896;48.758;8.888;2023-04-24T01:24:05;12.70;89.50
7708;DHT22;3896;48.758;8.888;2023-04-24T01:26:31;12.60;89.40
7708;DHT22;3896;48.758;8.888;2023-04-24T01:28:57;12.70;89.50
7708;DHT22;3896;48.758;8.888;2023-04-24T01:31:23;12.60;89.60
7708;DHT22;3896;48.758;8.888;2023-04-24T01:33:50;12.60;90.00
7708;DHT22;3896;48.758;8.888;2023-04-24T01:36:16;12.60;90.20
7708;DHT22;3896;48.758;8.888;2023-04-24T01:38:42;12.60;90.30
7708;DHT22;3896;48.758;8.888;2023-04-24T01:41:07;12.60;90.50
7708;DHT22;3896;48.758;8.888;2023-04-24T01:43:33;12.60;90.50
7708;DHT22;3896;48.758;8.888;2023-04-24T01:45:59;12.60;90.70
7708;DHT22;3896;48.758;8.888;2023-04-24T01:48:24;12.60;90.80
7708;DHT22;3896;48.758;8.888;2023-04-24T01:50:50;12.60;90.90
7708;DHT22;3896;48.758;8.888;2023-04-24T01:53:16;12.60;91.00
7708;DHT22;3896;48.758;8.888;2023-04-24T01:55:42;12.50;91.00
7708;DHT22;3896;48.758;8.888;2023-04-24T01:58:07;12.50;91.20
7708;DHT22;3896;48.758;8.888;2023-04-24T02:00:33;12.60;91.30
7708;DHT22;3896;48.758;8.888;2023-04-24T02:02:58;12.50;91.50
7708;DHT22;3896;48.758;8.888;2023-04-24T02:05:24;12.50;91.60
7708;DHT22;3896;48.758;8.888;2023-04-24T02:07:50;12.50;91.80
7708;DHT22;3896;48.758;8.888;2023-04-24T02:10:15;12.50;92.10
7708;DHT22;3896;48.758;8.888;2023-04-24T02:12:41;12.40;92.30
7708;DHT22;3896;48.758;8.888;2023-04-24T02:15:07;12.50;92.50
7708;DHT22;3896;48.758;8.888;2023-04-24T02:17:32;12.40;92.70
7708;DHT22;3896;48.758;8.888;2023-04-24T02:19:58;12.40;93.10
7708;DHT22;3896;48.758;8.888;2023-04-24T02:22:23;12.40;93.50
7708;DHT22;3896;48.758;8.888;2023-04-24T02:24:49;12.40;93.90
7708;DHT22;3896;48.758;8.888;2023-04-24T02:27:15;12.40;94.40
7708;DHT22;3896;48.758;8.888;2023-04-24T02:29:40;12.40;94.90
7708;DHT22;3896;48.758;8.888;2023-04-24T02:32:06;12.40;95.70
7708;DHT22;3896;48.758;8.888;2023-04-24T02:34:31;12.40;96.10
7708;DHT22;3896;48.758;8.888;2023-04-24T02:36:57;12.40;96.80
7708;DHT22;3896;48.758;8.888;2023-04-24T02:39:23;12.40;97.10
7708;DHT22;3896;48.758;8.888;2023-04-24T02:41:48;12.30;97.40
7708;DHT22;3896;48.758;8.888;2023-04-24T02:44:14;12.30;98.10
7708;DHT22;3896;48.758;8.888;2023-04-24T02:46:39;12.30;98.30
7708;DHT22;3896;48.758;8.888;2023-04-24T02:49:06;12.30;98.40
7708;DHT22;3896;48.758;8.888;2023-04-24T02:51:32;12.30;98.60
7708;DHT22;3896;48.758;8.888;2023-04-24T02:53:57;12.30;99.10
7708;DHT22;3896;48.758;8.888;2023-04-24T02:56:23;12.20;99.40
7708;DHT22;3896;48.758;8.888;2023-04-24T02:58:48;12.20;99.70
7708;DHT22;3896;48.758;8.888;2023-04-24T03:01:14;12.20;99.90
7708;DHT22;3896;48.758;8.888;2023-04-24T03:03:40;12.20;99.90
7708;DHT22;3896;48.758;8.888;2023-04-24T03:06:05;12.10;99.90
7708;DHT22;3896;48.758;8.888;2023-04-24T03:08:32;12.10;99.90
7708;DHT22;3896;48.758;8.888;2023-04-24T03:10:57;12.10;99.90
7708;DHT22;3896;48.758;8.888;2023-04-24T03:13:23;12.10;99.90
7708;DHT22;3896;48.758;8.888;2023-04-24T03:15:49;12.10;99.90
7708;DHT22;3896;48.758;8.888;2023-04-24T03:18:15;12.00;99.90
7708;DHT22;3896;48.758;8.888;2023-04-24T03:20:41;12.00;99.90
7708;DHT22;3896;48.758;8.888;2023-04-24T03:23:06;12.00;99.90
7708;DHT22;3896;48.758;8.888;2023-04-24T03:25:32;12.00;99.90
7708;DHT22;3896;48.758;8.888;2023-04-24T03:27:57;11.90;99.90
7708;DHT22;3896;48.758;8.888;2023-04-24T03:30:23;11.90;99.90
7708;DHT22;3896;48.758;8.888;2023-04-24T03:32:48;11.90;99.90
7708;DHT22;3896;48.758;8.888;2023-04-24T03:35:14;11.90;99.90
7708;DHT22;3896;48.758;8.888;2023-04-24T03:37:40;11.80;99.90
7708;DHT22;3896;48.758;8.888;2023-04-24T03:40:06;11.80;99.90
7708;DHT22;3896;48.758;8.888;2023-04-24T03:42:32;11.80;99.90
7708;DHT22;3896;48.758;8.888;2023-04-24T03:44:57;11.80;99.90
7708;DHT22;3896;48.758;8.888;2023-04-24T03:47:23;11.80;99.90
7708;DHT22;3896;48.758;8.888;2023-04-24T03:49:49;11.80;99.90
7708;DHT22;3896;48.758;8.888;2023-04-24T03:52:14;11.70;99.90
7708;DHT22;3896;48.758;8.888;2023-04-24T03:54:40;11.70;99.90
7708;DHT22;3896;48.758;8.888;2023-04-24T03:57:05;11.70;99.90
7708;DHT22;3896;48.758;8.888;2023-04-24T03:59:31;11.70;99.90
7708;DHT22;3896;48.758;8.888;2023-04-24T04:01:56;11.70;99.90
7708;DHT22;3896;48.758;8.888;2023-04-24T04:04:23;11.60;99.90
7708;DHT22;3896;48.758;8.888;2023-04-24T04:06:49;11.60;99.90
7708;DHT22;3896;48.758;8.888;2023-04-24T04:09:16;11.60;99.90
7708;DHT22;3896;48.758;8.888;2023-04-24T04:11:42;11.50;99.90
7708;DHT22;3896;48.758;8.888;2023-04-24T04:14:07;11.50;99.90
7708;DHT22;3896;48.758;8.888;2023-04-24T04:16:33;11.40;99.90
7708;DHT22;3896;48.758;8.888;2023-04-24T04:18:58;11.50;99.90
7708;DHT22;3896;48.758;8.888;2023-04-24T04:21:24;11.40;99.90
7708;DHT22;3896;48.758;8.888;2023-04-24T04:23:50;11.40;99.90
7708;DHT22;3896;48.758;8.888;2023-04-24T04:26:15;11.40;99.90
7708;DHT22;3896;48.758;8.888;2023-04-24T04:28:41;11.30;99.90
7708;DHT22;3896;48.758;8.888;2023-04-24T04:31:07;11.30;99.90
7708;DHT22;3896;48.758;8.888;2023-04-24T04:33:33;11.20;99.90
7708;DHT22;3896;48.758;8.888;2023-04-24T04:35:59;11.20;99.90
7708;DHT22;3896;48.758;8.888;2023-04-24T04:38:25;11.20;99.90
7708;DHT22;3896;48.758;8.888;2023-04-24T04:40:55;11.20;99.90
7708;DHT22;3896;48.758;8.888;2023-04-24T04:43:22;11.10;99.90
7708;DHT22;3896;48.758;8.888;2023-04-24T04:45:49;11.10;99.90
7708;DHT22;3896;48.758;8.888;2023-04-24T04:48:16;11.10;99.90
7708;DHT22;3896;48.758;8.888;2023-04-24T04:50:44;11.10;99.90
7708;DHT22;3896;48.758;8.888;2023-04-24T04:53:09;11.00;99.90
7708;DHT22;3896;48.758;8.888;2023-04-24T04:55:36;11.10;99.90
7708;DHT22;3896;48.758;8.888;2023-04-24T04:58:01;11.00;99.90
7708;DHT22;3896;48.758;8.888;2023-04-24T05:00:27;11.00;99.90
7708;DHT22;3896;48.758;8.888;2023-04-24T05:02:54;11.00;99.90
7708;DHT22;3896;48.758;8.888;2023-04-24T05:05:19;11.00;99.90
7708;DHT22;3896;48.758;8.888;2023-04-24T05:07:45;11.00;99.90
7708;DHT22;3896;48.758;8.888;2023-04-24T05:10:11;10.90;99.90
7708;DHT22;3896;48.758;8.888;2023-04-24T05:12:36;10.90;99.90
7708;DHT22;3896;48.758;8.888;2023-04-24T05:15:02;10.90;99.90
7708;DHT22;3896;48.758;8.888;2023-04-24T05:17:28;10.90;99.90
7708;DHT22;3896;48.758;8.888;2023-04-24T05:19:54;10.90;99.90
7708;DHT22;3896;48.758;8.888;2023-04-24T05:22:20;10.80;99.90
7708;DHT22;3896;48.758;8.888;2023-04-24T05:24:47;10.80;99.90
7708;DHT22;3896;48.758;8.888;2023-04-24T05:27:12;10.80;99.90
7708;DHT22;3896;48.758;8.888;2023-04-24T05:29:38;10.80;99.90
7708;DHT22;3896;48.758;8.888;2023-04-24T05:32:04;10.80;99.90
7708;DHT22;3896;48.758;8.888;2023-04-24T05:34:29;10.80;99.90
7708;DHT22;3896;48.758;8.888;2023-04-24T05:36:55;10.80;99.90
7708;DHT22;3896;48.758;8.888;2023-04-24T05:39:21;10.80;99.90
7708;DHT22;3896;48.758;8.888;2023-04-24T05:41:46;10.70;99.90
7708;DHT22;3896;48.758;8.888;2023-04-24T05:44:12;10.70;99.90
7708;DHT22;3896;48.758;8.888;2023-04-24T05:46:37;10.70;99.90
7708;DHT22;3896;48.758;8.888;2023-04-24T05:49:03;10.70;99.90
7708;DHT22;3896;48.758;8.888;2023-04-24T05:51:28;10.60;99.90
7708;DHT22;3896;48.758;8.888;2023-04-24T05:53:54;10.60;99.90
7708;DHT22;3896;48.758;8.888;2023-04-24T05:56:20;10.60;99.90
7708;DHT22;3896;48.758;8.888;2023-04-24T05:58:46;10.60;99.90
7708;DHT22;3896;48.758;8.888;2023-04-24T06:01:12;10.60;99.90
7708;DHT22;3896;48.758;8.888;2023-04-24T06:03:41;10.60;99.90
7708;DHT22;3896;48.758;8.888;2023-04-24T06:06:07;10.60;99.90
7708;DHT22;3896;48.758;8.888;2023-04-24T06:08:33;10.70;99.90
7708;DHT22;3896;48.758;8.888;2023-04-24T06:10:59;10.70;99.90
7708;DHT22;3896;48.758;8.888;2023-04-24T06:13:24;10.70;99.90
7708;DHT22;3896;48.758;8.888;2023-04-24T06:15:52;10.70;99.90
7708;DHT22;3896;48.758;8.888;2023-04-24T06:18:17;10.80;99.90
7708;DHT22;3896;48.758;8.888;2023-04-24T06:20:43;10.80;99.90
7708;DHT22;3896;48.758;8.888;2023-04-24T06:23:09;10.80;99.90
7708;DHT22;3896;48.758;8.888;2023-04-24T06:25:34;10.90;99.90
7708;DHT22;3896;48.758;8.888;2023-04-24T06:28:00;10.90;99.90
7708;DHT22;3896;48.758;8.888;2023-04-24T06:30:27;11.00;99.90
7708;DHT22;3896;48.758;8.888;2023-04-24T06:32:53;11.00;99.90
7708;DHT22;3896;48.758;8.888;2023-04-24T06:35:19;11.10;99.90
7708;DHT22;3896;48.758;8.888;2023-04-24T06:37:45;11.10;99.90
7708;DHT22;3896;48.758;8.888;2023-04-24T06:40:11;11.20;99.90
7708;DHT22;3896;48.758;8.888;2023-04-24T06:42:37;11.30;99.90
7708;DHT22;3896;48.758;8.888;2023-04-24T06:45:02;11.40;99.90
7708;DHT22;3896;48.758;8.888;2023-04-24T06:47:29;11.40;99.90
7708;DHT22;3896;48.758;8.888;2023-04-24T06:49:54;11.50;99.50
7708;DHT22;3896;48.758;8.888;2023-04-24T06:52:20;11.50;98.90
7708;DHT22;3896;48.758;8.888;2023-04-24T06:54:46;11.60;98.70
7708;DHT22;3896;48.758;8.888;2023-04-24T06:57:11;11.70;98.30
7708;DHT22;3896;48.758;8.888;2023-04-24T06:59:37;11.70;98.00
7708;DHT22;3896;48.758;8.888;2023-04-24T07:02:03;11.70;97.40
7708;DHT22;3896;48.758;8.888;2023-04-24T07:04:29;11.80;97.10
7708;DHT22;3896;48.758;8.888;2023-04-24T07:06:55;11.80;97.30
7708;DHT22;3896;48.758;8.888;2023-04-24T07:09:24;11.90;96.00
7708;DHT22;3896;48.758;8.888;2023-04-24T07:11:50;12.00;95.10
7708;DHT22;3896;48.758;8.888;2023-04-24T07:14:17;12.00;94.60
7708;DHT22;3896;48.758;8.888;2023-04-24T07:16:43;12.10;94.00
7708;DHT22;3896;48.758;8.888;2023-04-24T07:19:09;12.10;93.20
7708;DHT22;3896;48.758;8.888;2023-04-24T07:21:35;12.20;92.30
7708;DHT22;3896;48.758;8.888;2023-04-24T07:24:00;12.20;91.90
7708;DHT22;3896;48.758;8.888;2023-04-24T07:26:28;12.30;91.50
7708;DHT22;3896;48.758;8.888;2023-04-24T07:28:53;12.30;91.20
7708;DHT22;3896;48.758;8.888;2023-04-24T07:31:20;12.40;90.50
7708;DHT22;3896;48.758;8.888;2023-04-24T07:33:46;12.40;89.70
7708;DHT22;3896;48.758;8.888;2023-04-24T07:36:11;12.40;89.00
7708;DHT22;3896;48.758;8.888;2023-04-24T07:38:42;12.40;88.20
7708;DHT22;3896;48.758;8.888;2023-04-24T07:41:07;12.40;87.50
7708;DHT22;3896;48.758;8.888;2023-04-24T07:43:33;12.40;85.70
7708;DHT22;3896;48.758;8.888;2023-04-24T07:45:59;12.50;84.90
7708;DHT22;3896;48.758;8.888;2023-04-24T07:48:24;12.50;83.30
7708;DHT22;3896;48.758;8.888;2023-04-24T07:50:52;12.50;81.60
7708;DHT22;3896;48.758;8.888;2023-04-24T07:53:17;12.50;81.50
7708;DHT22;3896;48.758;8.888;2023-04-24T07:55:43;12.50;81.30
7708;DHT22;3896;48.758;8.888;2023-04-24T07:58:08;12.60;80.80
7708;DHT22;3896;48.758;8.888;2023-04-24T08:00:34;12.60;80.40
7708;DHT22;3896;48.758;8.888;2023-04-24T08:03:00;12.70;80.30
7708;DHT22;3896;48.758;8.888;2023-04-24T08:05:26;12.70;80.10
7708;DHT22;3896;48.758;8.888;2023-04-24T08:07:52;12.80;79.50
7708;DHT22;3896;48.758;8.888;2023-04-24T08:10:18;12.80;78.80
7708;DHT22;3896;48.758;8.888;2023-04-24T08:12:44;12.80;78.60
7708;DHT22;3896;48.758;8.888;2023-04-24T08:15:10;12.90;78.50
7708;DHT22;3896;48.758;8.888;2023-04-24T08:17:35;12.90;78.10
7708;DHT22;3896;48.758;8.888;2023-04-24T08:20:03;12.90;77.80
7708;DHT22;3896;48.758;8.888;2023-04-24T08:22:30;13.00;77.50
7708;DHT22;3896;48.758;8.888;2023-04-24T08:24:56;13.00;76.20
7708;DHT22;3896;48.758;8.888;2023-04-24T08:27:22;13.10;76.00
7708;DHT22;3896;48.758;8.888;2023-04-24T08:29:49;13.10;75.40
7708;DHT22;3896;48.758;8.888;2023-04-24T08:32:15;13.10;74.60
7708;DHT22;3896;48.758;8.888;2023-04-24T08:34:41;13.10;75.30
7708;DHT22;3896;48.758;8.888;2023-04-24T08:37:06;13.10;74.60
7708;DHT22;3896;48.758;8.888;2023-04-24T08:39:32;13.10;74.90
7708;DHT22;3896;48.758;8.888;2023-04-24T08:41:59;13.10;75.00
7708;DHT22;3896;48.758;8.888;2023-04-24T08:44:31;13.10;74.80
7708;DHT22;3896;48.758;8.888;2023-04-24T08:46:58;13.00;74.20
7708;DHT22;3896;48.758;8.888;2023-04-24T08:49:24;13.00;74.50
7708;DHT22;3896;48.758;8.888;2023-04-24T08:51:50;13.00;74.90
7708;DHT22;3896;48.758;8.888;2023-04-24T08:54:18;13.00;75.30
7708;DHT22;3896;48.758;8.888;2023-04-24T08:56:44;13.00;76.70
7708;DHT22;3896;48.758;8.888;2023-04-24T08:59:10;13.00;77.70
7708;DHT22;3896;48.758;8.888;2023-04-24T09:01:37;12.90;78.60
7708;DHT22;3896;48.758;8.888;2023-04-24T09:04:03;12.90;79.40
7708;DHT22;3896;48.758;8.888;2023-04-24T09:06:30;12.80;79.60
7708;DHT22;3896;48.758;8.888;2023-04-24T09:09:00;12.80;80.00
7708;DHT22;3896;48.758;8.888;2023-04-24T09:11:26;12.70;79.60
7708;DHT22;3896;48.758;8.888;2023-04-24T09:13:54;12.70;79.60
7708;DHT22;3896;48.758;8.888;2023-04-24T09:16:20;12.70;80.10
7708;DHT22;3896;48.758;8.888;2023-04-24T09:18:48;12.70;80.00
7708;DHT22;3896;48.758;8.888;2023-04-24T09:21:14;12.70;79.90
7708;DHT22;3896;48.758;8.888;2023-04-24T09:23:40;12.70;80.10
7708;DHT22;3896;48.758;8.888;2023-04-24T09:26:06;12.80;80.20
7708;DHT22;3896;48.758;8.888;2023-04-24T09:28:39;12.80;79.40
7708;DHT22;3896;48.758;8.888;2023-04-24T09:31:12;12.90;79.00
7708;DHT22;3896;48.758;8.888;2023-04-24T09:33:40;13.00;78.90
7708;DHT22;3896;48.758;8.888;2023-04-24T09:36:05;13.00;78.00
7708;DHT22;3896;48.758;8.888;2023-04-24T09:38:36;13.10;77.50
7708;DHT22;3896;48.758;8.888;2023-04-24T09:41:05;13.20;77.00
7708;DHT22;3896;48.758;8.888;2023-04-24T09:43:31;13.20;76.00
7708;DHT22;3896;48.758;8.888;2023-04-24T09:45:58;13.30;74.20
7708;DHT22;3896;48.758;8.888;2023-04-24T09:48:32;13.30;73.40
7708;DHT22;3896;48.758;8.888;2023-04-24T09:50:57;13.30;72.40
7708;DHT22;3896;48.758;8.888;2023-04-24T09:53:24;13.40;71.70
7708;DHT22;3896;48.758;8.888;2023-04-24T09:55:50;13.40;71.30
7708;DHT22;3896;48.758;8.888;2023-04-24T09:58:16;13.40;71.60
7708;DHT22;3896;48.758;8.888;2023-04-24T10:00:41;13.50;71.10
7708;DHT22;3896;48.758;8.888;2023-04-24T10:03:07;13.50;70.70
7708;DHT22;3896;48.758;8.888;2023-04-24T10:05:35;13.70;69.40
7708;DHT22;3896;48.758;8.888;2023-04-24T10:08:03;13.80;69.10
7708;DHT22;3896;48.758;8.888;2023-04-24T10:10:31;13.90;68.70
7708;DHT22;3896;48.758;8.888;2023-04-24T10:12:56;14.00;67.30
7708;DHT22;3896;48.758;8.888;2023-04-24T10:15:22;14.10;66.30
7708;DHT22;3896;48.758;8.888;2023-04-24T10:17:50;14.10;64.60
7708;DHT22;3896;48.758;8.888;2023-04-24T10:20:23;14.20;63.90
7708;DHT22;3896;48.758;8.888;2023-04-24T10:22:52;14.20;63.50
7708;DHT22;3896;48.758;8.888;2023-04-24T10:25:40;14.30;62.60
7708;DHT22;3896;48.758;8.888;2023-04-24T10:28:05;14.30;62.50
7708;DHT22;3896;48.758;8.888;2023-04-24T10:30:35;14.30;62.80
7708;DHT22;3896;48.758;8.888;2023-04-24T10:33:05;14.40;62.50
7708;DHT22;3896;48.758;8.888;2023-04-24T10:35:34;14.50;62.70
7708;DHT22;3896;48.758;8.888;2023-04-24T10:38:11;14.60;62.30
7708;DHT22;3896;48.758;8.888;2023-04-24T10:40:37;14.60;62.00
7708;DHT22;3896;48.758;8.888;2023-04-24T10:43:07;14.70;61.90
7708;DHT22;3896;48.758;8.888;2023-04-24T10:45:37;14.60;61.40
7708;DHT22;3896;48.758;8.888;2023-04-24T10:48:04;14.70;61.30
7708;DHT22;3896;48.758;8.888;2023-04-24T10:50:45;14.70;61.20
7708;DHT22;3896;48.758;8.888;2023-04-24T10:53:18;14.60;60.90
7708;DHT22;3896;48.758;8.888;2023-04-24T10:55:51;14.60;61.10
7708;DHT22;3896;48.758;8.888;2023-04-24T10:58:24;14.50;60.30
7708;DHT22;3896;48.758;8.888;2023-04-24T11:01:00;14.50;60.10
7708;DHT22;3896;48.758;8.888;2023-04-24T11:03:31;14.40;60.00
7708;DHT22;3896;48.758;8.888;2023-04-24T11:06:05;14.40;59.60
7708;DHT22;3896;48.758;8.888;2023-04-24T11:08:43;14.40;59.50
7708;DHT22;3896;48.758;8.888;2023-04-24T11:11:11;14.40;59.70
7708;DHT22;3896;48.758;8.888;2023-04-24T11:16:53;14.50;60.40
7708;DHT22;3896;48.758;8.888;2023-04-24T11:19:26;14.60;60.40
7708;DHT22;3896;48.758;8.888;2023-04-24T11:22:04;14.60;59.90
7708;DHT22;3896;48.758;8.888;2023-04-24T11:27:18;14.70;59.40
7708;DHT22;3896;48.758;8.888;2023-04-24T11:29:46;14.80;59.00
7708;DHT22;3896;48.758;8.888;2023-04-24T11:32:26;14.80;60.60
7708;DHT22;3896;48.758;8.888;2023-04-24T11:34:57;14.70;63.10
7708;DHT22;3896;48.758;8.888;2023-04-24T11:37:26;14.70;64.60
7708;DHT22;3896;48.758;8.888;2023-04-24T11:39:53;14.70;64.40
7708;DHT22;3896;48.758;8.888;2023-04-24T11:42:21;14.70;64.80
7708;DHT22;3896;48.758;8.888;2023-04-24T11:44:47;14.70;64.00
7708;DHT22;3896;48.758;8.888;2023-04-24T11:47:16;14.80;64.20
7708;DHT22;3896;48.758;8.888;2023-04-24T11:49:41;14.80;63.50
7708;DHT22;3896;48.758;8.888;2023-04-24T11:52:07;14.90;62.50
7708;DHT22;3896;48.758;8.888;2023-04-24T11:54:32;15.00;61.20
7708;DHT22;3896;48.758;8.888;2023-04-24T11:56:58;14.90;60.40
7708;DHT22;3896;48.758;8.888;2023-04-24T11:59:24;14.90;60.00
7708;DHT22;3896;48.758;8.888;2023-04-24T12:01:50;14.90;59.60
7708;DHT22;3896;48.758;8.888;2023-04-24T12:04:17;14.80;59.50
7708;DHT22;3896;48.758;8.888;2023-04-24T12:07:04;14.80;59.30
7708;DHT22;3896;48.758;8.888;2023-04-24T12:09:46;14.80;58.90
7708;DHT22;3896;48.758;8.888;2023-04-24T12:12:15;14.80;58.60
7708;DHT22;3896;48.758;8.888;2023-04-24T12:14:48;14.80;58.30
7708;DHT22;3896;48.758;8.888;2023-04-24T12:17:23;14.70;58.50
7708;DHT22;3896;48.758;8.888;2023-04-24T12:19:49;14.80;58.80
7708;DHT22;3896;48.758;8.888;2023-04-24T12:22:16;14.80;58.80
7708;DHT22;3896;48.758;8.888;2023-04-24T12:25:01;14.80;58.90
7708;DHT22;3896;48.758;8.888;2023-04-24T12:27:31;14.80;58.50
7708;DHT22;3896;48.758;8.888;2023-04-24T12:29:58;14.80;58.20
7708;DHT22;3896;48.758;8.888;2023-04-24T12:32:24;14.90;58.10
7708;DHT22;3896;48.758;8.888;2023-04-24T12:34:51;14.90;57.80
7708;DHT22;3896;48.758;8.888;2023-04-24T12:37:17;14.90;57.70
7708;DHT22;3896;48.758;8.888;2023-04-24T12:40:07;14.80;57.60
7708;DHT22;3896;48.758;8.888;2023-04-24T12:42:34;14.80;57.80
7708;DHT22;3896;48.758;8.888;2023-04-24T12:45:05;14.70;58.20
7708;DHT22;3896;48.758;8.888;2023-04-24T12:47:32;14.70;58.80
7708;DHT22;3896;48.758;8.888;2023-04-24T12:49:58;14.70;59.20
7708;DHT22;3896;48.758;8.888;2023-04-24T12:52:24;14.60;59.80
7708;DHT22;3896;48.758;8.888;2023-04-24T12:54:53;14.60;59.80
7708;DHT22;3896;48.758;8.888;2023-04-24T12:57:18;14.70;60.00
7708;DHT22;3896;48.758;8.888;2023-04-24T12:59:44;14.70;59.90
7708;DHT22;3896;48.758;8.888;2023-04-24T13:02:11;14.70;59.70
7708;DHT22;3896;48.758;8.888;2023-04-24T13:04:36;14.70;59.70
7708;DHT22;3896;48.758;8.888;2023-04-24T13:07:02;14.70;59.60
7708;DHT22;3896;48.758;8.888;2023-04-24T13:09:28;14.80;59.60
7708;DHT22;3896;48.758;8.888;2023-04-24T13:11:54;14.90;59.70
7708;DHT22;3896;48.758;8.888;2023-04-24T13:14:20;14.90;59.40
7708;DHT22;3896;48.758;8.888;2023-04-24T13:16:46;15.00;59.40
7708;DHT22;3896;48.758;8.888;2023-04-24T13:19:11;15.00;59.40
7708;DHT22;3896;48.758;8.888;2023-04-24T13:21:37;15.00;59.20
7708;DHT22;3896;48.758;8.888;2023-04-24T13:24:02;15.00;59.20
7708;DHT22;3896;48.758;8.888;2023-04-24T13:26:30;14.90;59.40
7708;DHT22;3896;48.758;8.888;2023-04-24T13:28:55;14.80;60.70
7708;DHT22;3896;48.758;8.888;2023-04-24T13:31:21;14.80;63.10
7708;DHT22;3896;48.758;8.888;2023-04-24T13:33:47;14.70;65.10
7708;DHT22;3896;48.758;8.888;2023-04-24T13:36:15;14.60;66.30
7708;DHT22;3896;48.758;8.888;2023-04-24T13:38:43;14.60;68.20
7708;DHT22;3896;48.758;8.888;2023-04-24T13:41:09;14.60;69.00
7708;DHT22;3896;48.758;8.888;2023-04-24T13:43:35;14.70;69.40
7708;DHT22;3896;48.758;8.888;2023-04-24T13:46:01;14.80;69.00
7708;DHT22;3896;48.758;8.888;2023-04-24T13:48:28;14.80;68.60
7708;DHT22;3896;48.758;8.888;2023-04-24T13:50:54;14.90;68.00
7708;DHT22;3896;48.758;8.888;2023-04-24T13:53:20;15.00;67.40
7708;DHT22;3896;48.758;8.888;2023-04-24T13:55:45;15.00;67.10
7708;DHT22;3896;48.758;8.888;2023-04-24T13:58:11;15.00;67.50
7708;DHT22;3896;48.758;8.888;2023-04-24T14:00:36;15.00;67.10
7708;DHT22;3896;48.758;8.888;2023-04-24T14:03:02;15.00;67.90
7708;DHT22;3896;48.758;8.888;2023-04-24T14:05:28;15.10;68.30
7708;DHT22;3896;48.758;8.888;2023-04-24T14:07:53;15.20;67.90
7708;DHT22;3896;48.758;8.888;2023-04-24T14:10:19;15.40;66.90
7708;DHT22;3896;48.758;8.888;2023-04-24T14:12:44;15.60;66.10
7708;DHT22;3896;48.758;8.888;2023-04-24T14:15:10;15.80;64.80
7708;DHT22;3896;48.758;8.888;2023-04-24T14:17:37;16.00;63.60
7708;DHT22;3896;48.758;8.888;2023-04-24T14:20:03;16.20;62.40
7708;DHT22;3896;48.758;8.888;2023-04-24T14:22:29;16.30;61.20
7708;DHT22;3896;48.758;8.888;2023-04-24T14:24:55;16.40;60.90
7708;DHT22;3896;48.758;8.888;2023-04-24T14:27:21;16.40;60.50
7708;DHT22;3896;48.758;8.888;2023-04-24T14:29:46;16.50;60.30
7708;DHT22;3896;48.758;8.888;2023-04-24T14:32:12;16.50;60.00
7708;DHT22;3896;48.758;8.888;2023-04-24T14:34:40;16.40;59.90
7708;DHT22;3896;48.758;8.888;2023-04-24T14:37:05;16.40;59.80
7708;DHT22;3896;48.758;8.888;2023-04-24T14:39:31;16.40;59.80
7708;DHT22;3896;48.758;8.888;2023-04-24T14:41:57;16.40;59.60
7708;DHT22;3896;48.758;8.888;2023-04-24T14:44:22;16.40;59.60
7708;DHT22;3896;48.758;8.888;2023-04-24T14:46:48;16.40;59.60
7708;DHT22;3896;48.758;8.888;2023-04-24T14:49:14;16.30;59.60
7708;DHT22;3896;48.758;8.888;2023-04-24T14:51:40;16.30;59.30
7708;DHT22;3896;48.758;8.888;2023-04-24T14:54:06;16.30;58.80
7708;DHT22;3896;48.758;8.888;2023-04-24T14:56:32;16.20;58.30
7708;DHT22;3896;48.758;8.888;2023-04-24T14:58:57;16.10;58.20
7708;DHT22;3896;48.758;8.888;2023-04-24T15:01:23;16.00;58.20
7708;DHT22;3896;48.758;8.888;2023-04-24T15:03:49;16.00;58.30
7708;DHT22;3896;48.758;8.888;2023-04-24T15:06:15;15.90;58.40
7708;DHT22;3896;48.758;8.888;2023-04-24T15:08:40;15.80;58.40
7708;DHT22;3896;48.758;8.888;2023-04-24T15:11:06;15.60;58.40
7708;DHT22;3896;48.758;8.888;2023-04-24T15:13:32;15.50;58.50
7708;DHT22;3896;48.758;8.888;2023-04-24T15:15:57;15.40;59.80
7708;DHT22;3896;48.758;8.888;2023-04-24T15:18:23;15.30;62.60
7708;DHT22;3896;48.758;8.888;2023-04-24T15:20:48;15.20;64.10
7708;DHT22;3896;48.758;8.888;2023-04-24T15:23:14;15.10;65.20
7708;DHT22;3896;48.758;8.888;2023-04-24T15:25:40;15.00;66.30
7708;DHT22;3896;48.758;8.888;2023-04-24T15:28:05;14.90;66.70
7708;DHT22;3896;48.758;8.888;2023-04-24T15:30:31;14.80;67.40
7708;DHT22;3896;48.758;8.888;2023-04-24T15:32:57;14.70;67.50
7708;DHT22;3896;48.758;8.888;2023-04-24T15:35:22;14.60;67.70
7708;DHT22;3896;48.758;8.888;2023-04-24T15:37:48;14.60;67.70
7708;DHT22;3896;48.758;8.888;2023-04-24T15:40:14;14.60;68.30
7708;DHT22;3896;48.758;8.888;2023-04-24T15:42:41;14.60;68.90
7708;DHT22;3896;48.758;8.888;2023-04-24T15:45:08;14.70;69.40
7708;DHT22;3896;48.758;8.888;2023-04-24T15:47:33;14.70;69.10
7708;DHT22;3896;48.758;8.888;2023-04-24T15:49:59;14.80;69.00
7708;DHT22;3896;48.758;8.888;2023-04-24T15:52:25;14.80;68.30
7708;DHT22;3896;48.758;8.888;2023-04-24T15:54:50;14.80;67.50
7708;DHT22;3896;48.758;8.888;2023-04-24T15:57:16;14.80;66.90
7708;DHT22;3896;48.758;8.888;2023-04-24T15:59:42;14.90;66.70
7708;DHT22;3896;48.758;8.888;2023-04-24T16:02:09;14.90;65.70
7708;DHT22;3896;48.758;8.888;2023-04-24T16:04:36;14.90;65.30